Terminal Aerodrome Forecast
Issued by NWS Cleveland, OH

Home | Current Version | Previous Version | Graphics & Text | Print | Product List | Glossary Off
Versions: 1 2 3 4 5 6 7 8 9 10 11 12 13 14

000
FTUS41 KCLE 190531
TAFYNG
TAF
KYNG 190531Z 1906/2006 VRB03KT P6SM SCT250
      TEMPO 1909/1912 4SM BR
     FM191200 12005KT P6SM BKN150
     FM192200 08004KT P6SM BKN100=

USA.gov is the U.S. government's official web portal to all federal, state and local government web resources and services.